Terminal Aerodrome Forecast
Issued by NWS

Home | Current Version | Previous Version | Text Only | Print | Product List | Glossary On
Versions: 1 2 3 4 5 6 7 8 9 10 11 12 13 14 15
000
FTUS44 KLZK 172300 RRA
TAFPBF
TAF
KPBF 172345Z 1800/1824 04007KT P6SM OVC090
     FM180200 06006KT P6SM VCSH OVC080
      TEMPO 1804/1807 -RA BKN050
     FM180700 07006KT P6SM -RA BKN040 OVC070
      TEMPO 1810/1814 5SM -RA SCT015 OVC035
     FM181400 08004KT 5SM -DZ OVC015
     FM181800 11003KT 6SM BR OVC018=

USA.gov is the U.S. government's official web portal to all federal, state and local government web resources and services.